sensor_id;sensor_type;location;lat;lon;timestamp;P1;durP1;ratioP1;P2;durP2;ratioP2
10537;SDS011;5317;49.048;8.468;2022-09-21T00:01:10;2.97;;;2.67;;
10537;SDS011;5317;49.048;8.468;2022-09-21T00:03:40;5.17;;;2.90;;
10537;SDS011;5317;49.048;8.468;2022-09-21T00:06:11;3.83;;;2.63;;
10537;SDS011;5317;49.048;8.468;2022-09-21T00:08:41;3.20;;;2.70;;
10537;SDS011;5317;49.048;8.468;2022-09-21T00:11:10;4.90;;;2.63;;
10537;SDS011;5317;49.048;8.468;2022-09-21T00:13:39;3.10;;;2.80;;
10537;SDS011;5317;49.048;8.468;2022-09-21T00:16:07;4.27;;;3.07;;
10537;SDS011;5317;49.048;8.468;2022-09-21T00:18:35;3.77;;;2.87;;
10537;SDS011;5317;49.048;8.468;2022-09-21T00:21:05;6.70;;;3.23;;
10537;SDS011;5317;49.048;8.468;2022-09-21T00:23:34;5.00;;;3.50;;
10537;SDS011;5317;49.048;8.468;2022-09-21T00:26:03;3.83;;;3.07;;
10537;SDS011;5317;49.048;8.468;2022-09-21T00:28:32;5.33;;;2.97;;
10537;SDS011;5317;49.048;8.468;2022-09-21T00:31:00;3.20;;;2.90;;
10537;SDS011;5317;49.048;8.468;2022-09-21T00:33:29;6.97;;;3.27;;
10537;SDS011;5317;49.048;8.468;2022-09-21T00:36:00;5.40;;;3.20;;
10537;SDS011;5317;49.048;8.468;2022-09-21T00:38:29;4.50;;;2.83;;
10537;SDS011;5317;49.048;8.468;2022-09-21T00:40:57;5.47;;;3.30;;
10537;SDS011;5317;49.048;8.468;2022-09-21T00:43:24;5.30;;;3.00;;
10537;SDS011;5317;49.048;8.468;2022-09-21T00:45:53;5.10;;;2.97;;
10537;SDS011;5317;49.048;8.468;2022-09-21T00:48:28;5.77;;;3.40;;
10537;SDS011;5317;49.048;8.468;2022-09-21T00:50:57;4.50;;;3.23;;
10537;SDS011;5317;49.048;8.468;2022-09-21T00:53:31;4.70;;;2.93;;
10537;SDS011;5317;49.048;8.468;2022-09-21T00:56:01;4.03;;;2.80;;
10537;SDS011;5317;49.048;8.468;2022-09-21T00:58:31;3.87;;;2.70;;
10537;SDS011;5317;49.048;8.468;2022-09-21T01:01:04;5.17;;;2.97;;
10537;SDS011;5317;49.048;8.468;2022-09-21T01:03:31;5.13;;;3.40;;
10537;SDS011;5317;49.048;8.468;2022-09-21T01:05:59;6.17;;;3.03;;
10537;SDS011;5317;49.048;8.468;2022-09-21T01:08:27;4.53;;;3.70;;
10537;SDS011;5317;49.048;8.468;2022-09-21T01:11:03;3.40;;;3.10;;
10537;SDS011;5317;49.048;8.468;2022-09-21T01:14:07;4.13;;;3.00;;
10537;SDS011;5317;49.048;8.468;2022-09-21T01:17:02;3.67;;;3.00;;
10537;SDS011;5317;49.048;8.468;2022-09-21T01:19:43;4.13;;;3.17;;
10537;SDS011;5317;49.048;8.468;2022-09-21T01:22:37;3.77;;;3.20;;
10537;SDS011;5317;49.048;8.468;2022-09-21T01:25:26;5.17;;;3.17;;
10537;SDS011;5317;49.048;8.468;2022-09-21T01:28:19;4.30;;;2.90;;
10537;SDS011;5317;49.048;8.468;2022-09-21T01:30:56;3.77;;;2.90;;
10537;SDS011;5317;49.048;8.468;2022-09-21T01:33:31;4.20;;;2.90;;
10537;SDS011;5317;49.048;8.468;2022-09-21T01:36:07;4.83;;;3.00;;
10537;SDS011;5317;49.048;8.468;2022-09-21T01:38:41;5.40;;;3.20;;
10537;SDS011;5317;49.048;8.468;2022-09-21T01:41:15;5.27;;;3.30;;
10537;SDS011;5317;49.048;8.468;2022-09-21T01:43:49;3.10;;;2.80;;
10537;SDS011;5317;49.048;8.468;2022-09-21T01:46:24;6.00;;;3.23;;
10537;SDS011;5317;49.048;8.468;2022-09-21T01:49:00;4.33;;;3.13;;
10537;SDS011;5317;49.048;8.468;2022-09-21T01:51:37;3.20;;;2.90;;
10537;SDS011;5317;49.048;8.468;2022-09-21T01:54:12;4.73;;;3.03;;
10537;SDS011;5317;49.048;8.468;2022-09-21T01:56:47;4.77;;;3.17;;
10537;SDS011;5317;49.048;8.468;2022-09-21T01:59:21;4.47;;;2.83;;
10537;SDS011;5317;49.048;8.468;2022-09-21T02:02:02;4.03;;;3.20;;
10537;SDS011;5317;49.048;8.468;2022-09-21T02:04:38;3.33;;;2.97;;
10537;SDS011;5317;49.048;8.468;2022-09-21T02:07:05;4.33;;;2.97;;
10537;SDS011;5317;49.048;8.468;2022-09-21T02:09:35;4.47;;;2.60;;
10537;SDS011;5317;49.048;8.468;2022-09-21T02:12:03;5.07;;;2.80;;
10537;SDS011;5317;49.048;8.468;2022-09-21T02:14:30;3.97;;;2.73;;
10537;SDS011;5317;49.048;8.468;2022-09-21T02:17:06;3.60;;;2.87;;
10537;SDS011;5317;49.048;8.468;2022-09-21T02:19:53;3.20;;;2.90;;
10537;SDS011;5317;49.048;8.468;2022-09-21T02:22:34;3.03;;;2.73;;
10537;SDS011;5317;49.048;8.468;2022-09-21T02:25:17;3.27;;;2.97;;
10537;SDS011;5317;49.048;8.468;2022-09-21T02:27:57;3.80;;;2.90;;
10537;SDS011;5317;49.048;8.468;2022-09-21T02:30:33;4.40;;;3.00;;
10537;SDS011;5317;49.048;8.468;2022-09-21T02:33:07;5.67;;;2.60;;
10537;SDS011;5317;49.048;8.468;2022-09-21T02:35:39;5.30;;;2.60;;
10537;SDS011;5317;49.048;8.468;2022-09-21T02:38:15;4.23;;;2.70;;
10537;SDS011;5317;49.048;8.468;2022-09-21T02:40:51;3.50;;;2.97;;
10537;SDS011;5317;49.048;8.468;2022-09-21T02:43:25;5.00;;;3.10;;
10537;SDS011;5317;49.048;8.468;2022-09-21T02:46:01;4.57;;;2.60;;
10537;SDS011;5317;49.048;8.468;2022-09-21T02:48:37;4.47;;;2.97;;
10537;SDS011;5317;49.048;8.468;2022-09-21T02:51:13;3.57;;;2.90;;
10537;SDS011;5317;49.048;8.468;2022-09-21T02:53:47;6.77;;;2.53;;
10537;SDS011;5317;49.048;8.468;2022-09-21T02:56:17;7.07;;;2.83;;
10537;SDS011;5317;49.048;8.468;2022-09-21T02:58:46;4.30;;;2.77;;
10537;SDS011;5317;49.048;8.468;2022-09-21T03:01:19;6.00;;;3.00;;
10537;SDS011;5317;49.048;8.468;2022-09-21T03:03:51;4.33;;;3.30;;
10537;SDS011;5317;49.048;8.468;2022-09-21T03:06:18;3.90;;;3.00;;
10537;SDS011;5317;49.048;8.468;2022-09-21T03:08:45;4.83;;;3.10;;
10537;SDS011;5317;49.048;8.468;2022-09-21T03:11:14;3.93;;;2.80;;
10537;SDS011;5317;49.048;8.468;2022-09-21T03:13:42;3.57;;;2.60;;
10537;SDS011;5317;49.048;8.468;2022-09-21T03:16:10;3.40;;;2.80;;
10537;SDS011;5317;49.048;8.468;2022-09-21T03:18:38;4.67;;;3.17;;
10537;SDS011;5317;49.048;8.468;2022-09-21T03:21:09;3.83;;;2.83;;
10537;SDS011;5317;49.048;8.468;2022-09-21T03:23:37;5.97;;;3.23;;
10537;SDS011;5317;49.048;8.468;2022-09-21T03:26:05;5.13;;;2.80;;
10537;SDS011;5317;49.048;8.468;2022-09-21T03:28:33;3.50;;;2.87;;
10537;SDS011;5317;49.048;8.468;2022-09-21T03:31:00;3.30;;;2.80;;
10537;SDS011;5317;49.048;8.468;2022-09-21T03:33:27;3.90;;;2.50;;
10537;SDS011;5317;49.048;8.468;2022-09-21T03:35:54;4.27;;;3.10;;
10537;SDS011;5317;49.048;8.468;2022-09-21T03:38:23;6.13;;;2.93;;
10537;SDS011;5317;49.048;8.468;2022-09-21T03:40:51;3.83;;;3.00;;
10537;SDS011;5317;49.048;8.468;2022-09-21T03:43:22;3.23;;;2.53;;
10537;SDS011;5317;49.048;8.468;2022-09-21T03:45:50;4.67;;;2.87;;
10537;SDS011;5317;49.048;8.468;2022-09-21T03:48:18;4.50;;;2.60;;
10537;SDS011;5317;49.048;8.468;2022-09-21T03:50:45;3.20;;;2.90;;
10537;SDS011;5317;49.048;8.468;2022-09-21T03:53:13;3.27;;;2.97;;
10537;SDS011;5317;49.048;8.468;2022-09-21T03:55:42;4.07;;;3.10;;
10537;SDS011;5317;49.048;8.468;2022-09-21T03:58:09;3.53;;;2.70;;
10537;SDS011;5317;49.048;8.468;2022-09-21T04:00:37;3.83;;;3.03;;
10537;SDS011;5317;49.048;8.468;2022-09-21T04:03:04;4.03;;;3.10;;
10537;SDS011;5317;49.048;8.468;2022-09-21T04:05:32;3.67;;;2.77;;
10537;SDS011;5317;49.048;8.468;2022-09-21T04:07:59;5.40;;;2.63;;
10537;SDS011;5317;49.048;8.468;2022-09-21T04:10:27;4.17;;;2.73;;
10537;SDS011;5317;49.048;8.468;2022-09-21T04:12:58;3.23;;;2.83;;
10537;SDS011;5317;49.048;8.468;2022-09-21T04:15:27;4.67;;;2.87;;
10537;SDS011;5317;49.048;8.468;2022-09-21T04:17:55;2.93;;;2.70;;
10537;SDS011;5317;49.048;8.468;2022-09-21T04:20:23;4.90;;;3.07;;
10537;SDS011;5317;49.048;8.468;2022-09-21T04:22:50;5.93;;;3.27;;
10537;SDS011;5317;49.048;8.468;2022-09-21T04:25:18;3.40;;;2.70;;
10537;SDS011;5317;49.048;8.468;2022-09-21T04:27:45;3.10;;;2.80;;
10537;SDS011;5317;49.048;8.468;2022-09-21T04:30:14;5.67;;;3.07;;
10537;SDS011;5317;49.048;8.468;2022-09-21T04:32:42;5.00;;;3.43;;
10537;SDS011;5317;49.048;8.468;2022-09-21T04:35:10;4.83;;;2.83;;
10537;SDS011;5317;49.048;8.468;2022-09-21T04:37:37;3.50;;;3.10;;
10537;SDS011;5317;49.048;8.468;2022-09-21T04:40:05;3.70;;;2.67;;
10537;SDS011;5317;49.048;8.468;2022-09-21T04:42:34;3.20;;;2.90;;
10537;SDS011;5317;49.048;8.468;2022-09-21T04:45:01;3.23;;;2.93;;
10537;SDS011;5317;49.048;8.468;2022-09-21T04:47:30;3.33;;;3.00;;
10537;SDS011;5317;49.048;8.468;2022-09-21T04:49:58;3.90;;;3.00;;
10537;SDS011;5317;49.048;8.468;2022-09-21T04:52:25;3.23;;;2.70;;
10537;SDS011;5317;49.048;8.468;2022-09-21T04:54:52;8.47;;;3.40;;
10537;SDS011;5317;49.048;8.468;2022-09-21T04:57:20;3.13;;;2.83;;
10537;SDS011;5317;49.048;8.468;2022-09-21T04:59:47;4.93;;;3.43;;
10537;SDS011;5317;49.048;8.468;2022-09-21T05:02:14;6.33;;;3.20;;
10537;SDS011;5317;49.048;8.468;2022-09-21T05:04:43;3.07;;;2.77;;
10537;SDS011;5317;49.048;8.468;2022-09-21T05:07:10;5.60;;;2.90;;
10537;SDS011;5317;49.048;8.468;2022-09-21T05:09:40;4.33;;;2.80;;
10537;SDS011;5317;49.048;8.468;2022-09-21T05:12:24;3.37;;;3.07;;
10537;SDS011;5317;49.048;8.468;2022-09-21T05:14:52;3.27;;;2.80;;
10537;SDS011;5317;49.048;8.468;2022-09-21T05:17:20;3.07;;;2.77;;
10537;SDS011;5317;49.048;8.468;2022-09-21T05:19:49;3.43;;;3.13;;
10537;SDS011;5317;49.048;8.468;2022-09-21T05:22:17;5.00;;;3.10;;
10537;SDS011;5317;49.048;8.468;2022-09-21T05:24:45;3.43;;;3.13;;
10537;SDS011;5317;49.048;8.468;2022-09-21T05:27:12;4.57;;;3.07;;
10537;SDS011;5317;49.048;8.468;2022-09-21T05:29:40;5.47;;;3.20;;
10537;SDS011;5317;49.048;8.468;2022-09-21T05:32:10;3.80;;;3.30;;
10537;SDS011;5317;49.048;8.468;2022-09-21T05:34:55;7.03;;;3.33;;
10537;SDS011;5317;49.048;8.468;2022-09-21T05:37:38;4.00;;;3.30;;
10537;SDS011;5317;49.048;8.468;2022-09-21T05:40:18;3.63;;;2.80;;
10537;SDS011;5317;49.048;8.468;2022-09-21T05:42:46;3.97;;;3.10;;
10537;SDS011;5317;49.048;8.468;2022-09-21T05:45:15;3.53;;;3.23;;
10537;SDS011;5317;49.048;8.468;2022-09-21T05:47:48;4.00;;;2.87;;
10537;SDS011;5317;49.048;8.468;2022-09-21T05:50:32;3.83;;;3.03;;
10537;SDS011;5317;49.048;8.468;2022-09-21T05:53:17;3.63;;;3.17;;
10537;SDS011;5317;49.048;8.468;2022-09-21T05:59:13;5.83;;;3.47;;
10537;SDS011;5317;49.048;8.468;2022-09-21T06:02:02;5.10;;;3.50;;
10537;SDS011;5317;49.048;8.468;2022-09-21T06:04:39;4.47;;;3.57;;
10537;SDS011;5317;49.048;8.468;2022-09-21T06:07:08;6.27;;;4.07;;
10537;SDS011;5317;49.048;8.468;2022-09-21T06:09:36;3.70;;;3.30;;
10537;SDS011;5317;49.048;8.468;2022-09-21T06:12:03;5.20;;;3.80;;
10537;SDS011;5317;49.048;8.468;2022-09-21T06:14:30;4.50;;;3.57;;
10537;SDS011;5317;49.048;8.468;2022-09-21T06:16:57;4.67;;;3.90;;
10537;SDS011;5317;49.048;8.468;2022-09-21T06:19:25;4.23;;;3.83;;
10537;SDS011;5317;49.048;8.468;2022-09-21T06:21:52;4.63;;;3.90;;
10537;SDS011;5317;49.048;8.468;2022-09-21T06:24:21;5.70;;;3.83;;
10537;SDS011;5317;49.048;8.468;2022-09-21T06:26:48;6.47;;;4.00;;
10537;SDS011;5317;49.048;8.468;2022-09-21T06:29:17;5.13;;;4.00;;
10537;SDS011;5317;49.048;8.468;2022-09-21T06:31:47;6.13;;;4.27;;
10537;SDS011;5317;49.048;8.468;2022-09-21T06:34:16;6.20;;;4.27;;
10537;SDS011;5317;49.048;8.468;2022-09-21T06:36:43;8.03;;;4.23;;
10537;SDS011;5317;49.048;8.468;2022-09-21T06:39:11;6.07;;;3.87;;
10537;SDS011;5317;49.048;8.468;2022-09-21T06:41:39;6.37;;;4.67;;
10537;SDS011;5317;49.048;8.468;2022-09-21T06:44:07;6.83;;;4.37;;
10537;SDS011;5317;49.048;8.468;2022-09-21T06:46:34;6.60;;;4.33;;
10537;SDS011;5317;49.048;8.468;2022-09-21T06:49:04;6.40;;;4.10;;
10537;SDS011;5317;49.048;8.468;2022-09-21T06:51:31;6.27;;;4.07;;
10537;SDS011;5317;49.048;8.468;2022-09-21T06:53:59;10.20;;;4.57;;
10537;SDS011;5317;49.048;8.468;2022-09-21T06:56:26;6.17;;;5.00;;
10537;SDS011;5317;49.048;8.468;2022-09-21T06:58:55;6.57;;;4.37;;
10537;SDS011;5317;49.048;8.468;2022-09-21T07:01:22;5.93;;;4.30;;
10537;SDS011;5317;49.048;8.468;2022-09-21T07:03:50;6.30;;;4.70;;
10537;SDS011;5317;49.048;8.468;2022-09-21T07:06:18;5.87;;;4.50;;
10537;SDS011;5317;49.048;8.468;2022-09-21T07:08:45;7.13;;;4.77;;
10537;SDS011;5317;49.048;8.468;2022-09-21T07:11:13;5.33;;;4.83;;
10537;SDS011;5317;49.048;8.468;2022-09-21T07:13:40;8.00;;;4.70;;
10537;SDS011;5317;49.048;8.468;2022-09-21T07:16:09;6.03;;;4.97;;
10537;SDS011;5317;49.048;8.468;2022-09-21T07:18:39;7.70;;;4.67;;
10537;SDS011;5317;49.048;8.468;2022-09-21T07:21:07;6.33;;;5.00;;
10537;SDS011;5317;49.048;8.468;2022-09-21T07:23:36;5.90;;;4.87;;
10537;SDS011;5317;49.048;8.468;2022-09-21T07:26:04;6.03;;;5.23;;
10537;SDS011;5317;49.048;8.468;2022-09-21T07:28:35;5.43;;;4.40;;
10537;SDS011;5317;49.048;8.468;2022-09-21T07:31:06;8.03;;;4.93;;
10537;SDS011;5317;49.048;8.468;2022-09-21T07:33:36;6.57;;;5.47;;
10537;SDS011;5317;49.048;8.468;2022-09-21T07:36:04;8.73;;;6.23;;
10537;SDS011;5317;49.048;8.468;2022-09-21T07:38:38;6.37;;;5.27;;
10537;SDS011;5317;49.048;8.468;2022-09-21T07:41:09;6.37;;;5.07;;
10537;SDS011;5317;49.048;8.468;2022-09-21T07:43:39;7.90;;;5.40;;
10537;SDS011;5317;49.048;8.468;2022-09-21T07:46:08;6.93;;;5.30;;
10537;SDS011;5317;49.048;8.468;2022-09-21T07:48:40;8.13;;;5.33;;
10537;SDS011;5317;49.048;8.468;2022-09-21T07:51:08;8.00;;;5.30;;
10537;SDS011;5317;49.048;8.468;2022-09-21T07:53:38;6.20;;;5.13;;
10537;SDS011;5317;49.048;8.468;2022-09-21T07:56:08;8.77;;;5.33;;
10537;SDS011;5317;49.048;8.468;2022-09-21T07:58:38;6.47;;;5.20;;
10537;SDS011;5317;49.048;8.468;2022-09-21T08:01:23;5.47;;;4.80;;
10537;SDS011;5317;49.048;8.468;2022-09-21T08:03:54;8.13;;;5.30;;
10537;SDS011;5317;49.048;8.468;2022-09-21T08:06:23;5.47;;;4.67;;
10537;SDS011;5317;49.048;8.468;2022-09-21T08:08:53;6.03;;;5.43;;
10537;SDS011;5317;49.048;8.468;2022-09-21T08:11:21;9.33;;;4.97;;
10537;SDS011;5317;49.048;8.468;2022-09-21T08:13:51;6.83;;;4.90;;
10537;SDS011;5317;49.048;8.468;2022-09-21T08:16:19;6.33;;;5.10;;
10537;SDS011;5317;49.048;8.468;2022-09-21T08:18:47;5.77;;;4.93;;
10537;SDS011;5317;49.048;8.468;2022-09-21T08:21:17;6.30;;;4.73;;
10537;SDS011;5317;49.048;8.468;2022-09-21T08:23:44;6.97;;;5.27;;
10537;SDS011;5317;49.048;8.468;2022-09-21T08:26:14;6.50;;;4.53;;
10537;SDS011;5317;49.048;8.468;2022-09-21T08:28:43;6.13;;;4.63;;
10537;SDS011;5317;49.048;8.468;2022-09-21T08:31:14;7.40;;;4.50;;
10537;SDS011;5317;49.048;8.468;2022-09-21T08:33:43;8.63;;;5.17;;
10537;SDS011;5317;49.048;8.468;2022-09-21T08:36:10;6.43;;;4.83;;
10537;SDS011;5317;49.048;8.468;2022-09-21T08:38:43;6.93;;;4.20;;
10537;SDS011;5317;49.048;8.468;2022-09-21T08:41:13;7.63;;;4.90;;
10537;SDS011;5317;49.048;8.468;2022-09-21T08:43:44;7.00;;;4.40;;
10537;SDS011;5317;49.048;8.468;2022-09-21T08:46:19;6.73;;;4.67;;
10537;SDS011;5317;49.048;8.468;2022-09-21T08:48:53;5.27;;;4.60;;
10537;SDS011;5317;49.048;8.468;2022-09-21T08:51:29;5.60;;;4.07;;
10537;SDS011;5317;49.048;8.468;2022-09-21T08:54:05;7.20;;;4.13;;
10537;SDS011;5317;49.048;8.468;2022-09-21T08:56:41;6.87;;;4.67;;
10537;SDS011;5317;49.048;8.468;2022-09-21T08:59:10;6.37;;;3.90;;
10537;SDS011;5317;49.048;8.468;2022-09-21T09:01:44;5.43;;;3.83;;
10537;SDS011;5317;49.048;8.468;2022-09-21T09:04:29;6.77;;;3.70;;
10537;SDS011;5317;49.048;8.468;2022-09-21T09:07:19;7.27;;;4.07;;
10537;SDS011;5317;49.048;8.468;2022-09-21T09:10:26;5.53;;;4.00;;
10537;SDS011;5317;49.048;8.468;2022-09-21T09:13:06;5.03;;;3.70;;
10537;SDS011;5317;49.048;8.468;2022-09-21T09:16:04;6.33;;;3.73;;
10537;SDS011;5317;49.048;8.468;2022-09-21T09:18:44;7.57;;;4.17;;
10537;SDS011;5317;49.048;8.468;2022-09-21T09:21:18;6.20;;;3.70;;
10537;SDS011;5317;49.048;8.468;2022-09-21T09:23:52;5.47;;;4.23;;
10537;SDS011;5317;49.048;8.468;2022-09-21T09:26:31;5.30;;;3.87;;
10537;SDS011;5317;49.048;8.468;2022-09-21T09:29:10;5.03;;;3.00;;
10537;SDS011;5317;49.048;8.468;2022-09-21T09:31:47;3.83;;;2.50;;
10537;SDS011;5317;49.048;8.468;2022-09-21T09:34:20;3.43;;;2.40;;
10537;SDS011;5317;49.048;8.468;2022-09-21T09:36:58;6.23;;;2.33;;
10537;SDS011;5317;49.048;8.468;2022-09-21T09:39:35;2.93;;;2.00;;
10537;SDS011;5317;49.048;8.468;2022-09-21T09:42:10;3.13;;;2.07;;
10537;SDS011;5317;49.048;8.468;2022-09-21T09:44:59;3.40;;;1.80;;
10537;SDS011;5317;49.048;8.468;2022-09-21T09:48:11;3.53;;;2.10;;
10537;SDS011;5317;49.048;8.468;2022-09-21T09:50:59;3.50;;;1.70;;
10537;SDS011;5317;49.048;8.468;2022-09-21T09:53:27;1.97;;;1.63;;
10537;SDS011;5317;49.048;8.468;2022-09-21T09:55:56;1.73;;;1.63;;
10537;SDS011;5317;49.048;8.468;2022-09-21T09:58:29;2.73;;;1.60;;
10537;SDS011;5317;49.048;8.468;2022-09-21T10:01:06;1.77;;;1.67;;
10537;SDS011;5317;49.048;8.468;2022-09-21T10:03:34;4.50;;;1.40;;
10537;SDS011;5317;49.048;8.468;2022-09-21T10:06:02;2.57;;;1.70;;
10537;SDS011;5317;49.048;8.468;2022-09-21T10:08:37;3.37;;;1.70;;
10537;SDS011;5317;49.048;8.468;2022-09-21T10:14:37;4.53;;;1.37;;
10537;SDS011;5317;49.048;8.468;2022-09-21T10:17:14;3.13;;;1.50;;
10537;SDS011;5317;49.048;8.468;2022-09-21T10:19:43;1.70;;;1.20;;
10537;SDS011;5317;49.048;8.468;2022-09-21T10:22:13;2.17;;;1.73;;
10537;SDS011;5317;49.048;8.468;2022-09-21T10:24:45;1.97;;;1.50;;
10537;SDS011;5317;49.048;8.468;2022-09-21T10:27:20;1.20;;;1.10;;
10537;SDS011;5317;49.048;8.468;2022-09-21T10:29:54;2.60;;;1.60;;
10537;SDS011;5317;49.048;8.468;2022-09-21T10:32:24;2.87;;;1.57;;
10537;SDS011;5317;49.048;8.468;2022-09-21T10:35:00;2.47;;;1.60;;
10537;SDS011;5317;49.048;8.468;2022-09-21T10:37:43;2.07;;;1.57;;
10537;SDS011;5317;49.048;8.468;2022-09-21T10:40:22;1.87;;;1.40;;
10537;SDS011;5317;49.048;8.468;2022-09-21T10:42:55;1.70;;;1.20;;
10537;SDS011;5317;49.048;8.468;2022-09-21T10:45:27;2.90;;;1.30;;
10537;SDS011;5317;49.048;8.468;2022-09-21T10:47:56;1.63;;;1.53;;
10537;SDS011;5317;49.048;8.468;2022-09-21T10:50:34;2.77;;;1.20;;
10537;SDS011;5317;49.048;8.468;2022-09-21T10:53:10;2.00;;;1.53;;
10537;SDS011;5317;49.048;8.468;2022-09-21T10:55:56;2.53;;;1.60;;
10537;SDS011;5317;49.048;8.468;2022-09-21T10:58:28;2.43;;;1.97;;
10537;SDS011;5317;49.048;8.468;2022-09-21T11:01:09;1.77;;;1.60;;
10537;SDS011;5317;49.048;8.468;2022-09-21T11:03:47;2.23;;;1.67;;
10537;SDS011;5317;49.048;8.468;2022-09-21T11:06:23;2.07;;;1.30;;
10537;SDS011;5317;49.048;8.468;2022-09-21T11:08:59;3.77;;;1.20;;
10537;SDS011;5317;49.048;8.468;2022-09-21T11:11:41;1.60;;;1.40;;
10537;SDS011;5317;49.048;8.468;2022-09-21T11:14:26;1.43;;;1.10;;
10537;SDS011;5317;49.048;8.468;2022-09-21T11:17:30;1.27;;;0.90;;
10537;SDS011;5317;49.048;8.468;2022-09-21T11:20:07;2.50;;;1.20;;
10537;SDS011;5317;49.048;8.468;2022-09-21T11:22:50;1.70;;;1.40;;
10537;SDS011;5317;49.048;8.468;2022-09-21T11:25:30;1.53;;;1.20;;
10537;SDS011;5317;49.048;8.468;2022-09-21T11:28:12;2.50;;;1.10;;
10537;SDS011;5317;49.048;8.468;2022-09-21T11:30:58;1.40;;;1.17;;
10537;SDS011;5317;49.048;8.468;2022-09-21T11:33:53;1.17;;;1.07;;
10537;SDS011;5317;49.048;8.468;2022-09-21T11:36:39;0.80;;;0.80;;
10537;SDS011;5317;49.048;8.468;2022-09-21T11:39:23;0.80;;;0.80;;
10537;SDS011;5317;49.048;8.468;2022-09-21T11:42:10;1.33;;;0.97;;
10537;SDS011;5317;49.048;8.468;2022-09-21T11:44:53;1.43;;;1.10;;
10537;SDS011;5317;49.048;8.468;2022-09-21T11:50:37;1.10;;;1.00;;
10537;SDS011;5317;49.048;8.468;2022-09-21T11:53:32;1.07;;;0.83;;
10537;SDS011;5317;49.048;8.468;2022-09-21T11:56:29;1.60;;;1.00;;
10537;SDS011;5317;49.048;8.468;2022-09-21T11:59:16;1.80;;;0.90;;
10537;SDS011;5317;49.048;8.468;2022-09-21T12:05:16;1.30;;;1.00;;
10537;SDS011;5317;49.048;8.468;2022-09-21T12:08:03;1.90;;;0.80;;
10537;SDS011;5317;49.048;8.468;2022-09-21T12:11:06;0.70;;;0.70;;
10537;SDS011;5317;49.048;8.468;2022-09-21T12:13:48;1.37;;;0.90;;
10537;SDS011;5317;49.048;8.468;2022-09-21T12:16:30;1.43;;;0.63;;
10537;SDS011;5317;49.048;8.468;2022-09-21T12:19:08;1.10;;;0.83;;
10537;SDS011;5317;49.048;8.468;2022-09-21T12:21:49;0.60;;;0.60;;
10537;SDS011;5317;49.048;8.468;2022-09-21T12:24:28;1.27;;;0.90;;
10537;SDS011;5317;49.048;8.468;2022-09-21T12:27:01;0.80;;;0.70;;
10537;SDS011;5317;49.048;8.468;2022-09-21T12:29:44;1.60;;;0.70;;
10537;SDS011;5317;49.048;8.468;2022-09-21T12:32:18;1.07;;;0.90;;
10537;SDS011;5317;49.048;8.468;2022-09-21T12:34:53;1.50;;;1.00;;
10537;SDS011;5317;49.048;8.468;2022-09-21T12:37:25;1.10;;;0.67;;
10537;SDS011;5317;49.048;8.468;2022-09-21T12:40:02;1.43;;;0.93;;
10537;SDS011;5317;49.048;8.468;2022-09-21T12:42:39;1.83;;;0.80;;
10537;SDS011;5317;49.048;8.468;2022-09-21T12:45:14;0.60;;;0.60;;
10537;SDS011;5317;49.048;8.468;2022-09-21T12:47:51;1.13;;;0.83;;
10537;SDS011;5317;49.048;8.468;2022-09-21T12:50:26;1.00;;;0.83;;
10537;SDS011;5317;49.048;8.468;2022-09-21T12:53:03;0.97;;;0.70;;
10537;SDS011;5317;49.048;8.468;2022-09-21T12:55:39;3.00;;;0.80;;
10537;SDS011;5317;49.048;8.468;2022-09-21T12:58:21;1.23;;;0.70;;
10537;SDS011;5317;49.048;8.468;2022-09-21T13:01:11;0.90;;;0.70;;
10537;SDS011;5317;49.048;8.468;2022-09-21T13:03:54;2.80;;;1.20;;
10537;SDS011;5317;49.048;8.468;2022-09-21T13:07:02;0.80;;;0.80;;
10537;SDS011;5317;49.048;8.468;2022-09-21T13:10:17;1.80;;;0.83;;
10537;SDS011;5317;49.048;8.468;2022-09-21T13:12:58;0.73;;;0.70;;
10537;SDS011;5317;49.048;8.468;2022-09-21T13:15:32;0.80;;;0.80;;
10537;SDS011;5317;49.048;8.468;2022-09-21T13:18:15;0.73;;;0.73;;
10537;SDS011;5317;49.048;8.468;2022-09-21T13:20:48;1.77;;;1.00;;
10537;SDS011;5317;49.048;8.468;2022-09-21T13:23:21;1.23;;;1.00;;
10537;SDS011;5317;49.048;8.468;2022-09-21T13:25:58;3.03;;;0.90;;
10537;SDS011;5317;49.048;8.468;2022-09-21T13:28:40;2.90;;;1.00;;
10537;SDS011;5317;49.048;8.468;2022-09-21T13:31:52;1.47;;;0.90;;
10537;SDS011;5317;49.048;8.468;2022-09-21T13:34:28;0.80;;;0.73;;
10537;SDS011;5317;49.048;8.468;2022-09-21T13:43:16;1.33;;;1.00;;
10537;SDS011;5317;49.048;8.468;2022-09-21T13:48:35;0.70;;;0.70;;
10537;SDS011;5317;49.048;8.468;2022-09-21T13:51:05;1.23;;;0.93;;
10537;SDS011;5317;49.048;8.468;2022-09-21T13:53:36;1.60;;;1.00;;
10537;SDS011;5317;49.048;8.468;2022-09-21T13:56:15;1.70;;;1.00;;
10537;SDS011;5317;49.048;8.468;2022-09-21T13:58:47;0.83;;;0.70;;
10537;SDS011;5317;49.048;8.468;2022-09-21T14:01:21;1.53;;;0.90;;
10537;SDS011;5317;49.048;8.468;2022-09-21T14:03:55;1.47;;;1.10;;
10537;SDS011;5317;49.048;8.468;2022-09-21T14:06:28;0.67;;;0.67;;
10537;SDS011;5317;49.048;8.468;2022-09-21T14:09:01;1.17;;;0.83;;
10537;SDS011;5317;49.048;8.468;2022-09-21T14:11:33;0.80;;;0.80;;
10537;SDS011;5317;49.048;8.468;2022-09-21T14:14:14;1.17;;;0.90;;
10537;SDS011;5317;49.048;8.468;2022-09-21T14:22:34;0.80;;;0.70;;
10537;SDS011;5317;49.048;8.468;2022-09-21T14:28:13;2.90;;;1.00;;
10537;SDS011;5317;49.048;8.468;2022-09-21T14:30:48;0.60;;;0.60;;
10537;SDS011;5317;49.048;8.468;2022-09-21T14:33:29;0.77;;;0.77;;
10537;SDS011;5317;49.048;8.468;2022-09-21T14:36:08;1.17;;;0.70;;
10537;SDS011;5317;49.048;8.468;2022-09-21T14:38:43;1.37;;;0.60;;
10537;SDS011;5317;49.048;8.468;2022-09-21T14:41:16;1.43;;;1.10;;
10537;SDS011;5317;49.048;8.468;2022-09-21T14:43:49;0.60;;;0.60;;
10537;SDS011;5317;49.048;8.468;2022-09-21T14:49:45;0.87;;;0.80;;
10537;SDS011;5317;49.048;8.468;2022-09-21T14:52:31;0.90;;;0.70;;
10537;SDS011;5317;49.048;8.468;2022-09-21T14:55:19;0.67;;;0.67;;
10537;SDS011;5317;49.048;8.468;2022-09-21T14:58:02;1.90;;;0.80;;
10537;SDS011;5317;49.048;8.468;2022-09-21T15:00:57;0.90;;;0.90;;
10537;SDS011;5317;49.048;8.468;2022-09-21T15:04:15;0.90;;;0.90;;
10537;SDS011;5317;49.048;8.468;2022-09-21T15:07:04;0.60;;;0.60;;
10537;SDS011;5317;49.048;8.468;2022-09-21T15:16:33;0.60;;;0.60;;
10537;SDS011;5317;49.048;8.468;2022-09-21T15:19:13;0.87;;;0.77;;
10537;SDS011;5317;49.048;8.468;2022-09-21T15:21:47;0.90;;;0.70;;
10537;SDS011;5317;49.048;8.468;2022-09-21T15:24:19;1.07;;;0.80;;
10537;SDS011;5317;49.048;8.468;2022-09-21T15:26:54;0.80;;;0.80;;
10537;SDS011;5317;49.048;8.468;2022-09-21T15:29:34;1.03;;;0.80;;
10537;SDS011;5317;49.048;8.468;2022-09-21T15:32:03;1.80;;;0.90;;
10537;SDS011;5317;49.048;8.468;2022-09-21T15:34:32;0.60;;;0.60;;
10537;SDS011;5317;49.048;8.468;2022-09-21T15:37:06;2.20;;;1.13;;
10537;SDS011;5317;49.048;8.468;2022-09-21T15:39:42;1.80;;;0.80;;
10537;SDS011;5317;49.048;8.468;2022-09-21T15:42:14;1.43;;;0.70;;
10537;SDS011;5317;49.048;8.468;2022-09-21T15:44:47;0.67;;;0.67;;
10537;SDS011;5317;49.048;8.468;2022-09-21T15:47:17;1.17;;;1.07;;
10537;SDS011;5317;49.048;8.468;2022-09-21T15:49:50;0.73;;;0.70;;
10537;SDS011;5317;49.048;8.468;2022-09-21T15:52:22;0.80;;;0.80;;
10537;SDS011;5317;49.048;8.468;2022-09-21T15:54:58;1.77;;;0.90;;
10537;SDS011;5317;49.048;8.468;2022-09-21T15:57:36;1.87;;;0.90;;
10537;SDS011;5317;49.048;8.468;2022-09-21T16:00:16;1.90;;;1.30;;
10537;SDS011;5317;49.048;8.468;2022-09-21T16:02:53;0.83;;;0.83;;
10537;SDS011;5317;49.048;8.468;2022-09-21T16:05:31;1.00;;;0.87;;
10537;SDS011;5317;49.048;8.468;2022-09-21T16:08:20;3.67;;;1.00;;
10537;SDS011;5317;49.048;8.468;2022-09-21T16:11:13;1.90;;;0.83;;
10537;SDS011;5317;49.048;8.468;2022-09-21T16:13:47;0.83;;;0.80;;
10537;SDS011;5317;49.048;8.468;2022-09-21T16:20:05;2.17;;;1.10;;
10537;SDS011;5317;49.048;8.468;2022-09-21T16:22:48;1.20;;;0.70;;
10537;SDS011;5317;49.048;8.468;2022-09-21T16:25:28;0.73;;;0.73;;
10537;SDS011;5317;49.048;8.468;2022-09-21T16:28:01;1.53;;;0.83;;
10537;SDS011;5317;49.048;8.468;2022-09-21T16:30:42;1.37;;;0.80;;